createdAt,value
2023-04-22T00:00:01.654Z,7.32
2023-04-22T00:02:29.926Z,7.45
2023-04-22T00:04:58.546Z,9.27
2023-04-22T00:07:28.148Z,9.85
2023-04-22T00:09:56.318Z,7.40
2023-04-22T00:12:24.517Z,7.25
2023-04-22T00:14:52.682Z,6.72
2023-04-22T00:17:20.868Z,8.18
2023-04-22T00:19:48.963Z,7.57
2023-04-22T00:22:17.167Z,7.30
2023-04-22T00:24:46.595Z,7.53
2023-04-22T00:27:14.730Z,7.78
2023-04-22T00:29:42.846Z,9.45
2023-04-22T00:32:11.044Z,6.80
2023-04-22T00:34:39.162Z,6.70
2023-04-22T00:37:07.335Z,5.80
2023-04-22T00:39:35.539Z,6.82
2023-04-22T00:42:06.326Z,6.10
2023-04-22T00:44:34.799Z,7.68
2023-04-22T00:47:03.088Z,6.78
2023-04-22T00:49:31.686Z,8.20
2023-04-22T00:51:59.832Z,10.02
2023-04-22T00:54:28.894Z,8.05
2023-04-22T00:56:57.915Z,7.47
2023-04-22T00:59:28.223Z,7.03
2023-04-22T01:01:58.993Z,7.10
2023-04-22T01:04:27.245Z,5.65
2023-04-22T01:06:55.517Z,6.40
2023-04-22T01:09:23.733Z,7.13
2023-04-22T01:11:52.139Z,6.07
2023-04-22T01:14:20.358Z,6.55
2023-04-22T01:16:51.213Z,6.88
2023-04-22T01:19:19.573Z,6.97
2023-04-22T01:21:51.165Z,9.40
2023-04-22T01:24:21.173Z,6.93
2023-04-22T01:26:50.097Z,6.93
2023-04-22T01:29:18.496Z,8.05
2023-04-22T01:31:47.488Z,8.20
2023-04-22T01:34:15.781Z,7.32
2023-04-22T01:36:45.036Z,7.63
2023-04-22T01:39:13.406Z,6.13
2023-04-22T01:41:43.183Z,6.03
2023-04-22T01:44:11.358Z,7.45
2023-04-22T01:46:39.525Z,6.88
2023-04-22T01:49:07.665Z,8.13
2023-04-22T01:51:35.862Z,9.50
2023-04-22T01:54:05.113Z,8.68
2023-04-22T01:56:33.244Z,6.32
2023-04-22T01:59:02.712Z,6.78
2023-04-22T02:01:30.921Z,6.25
2023-04-22T02:03:59.161Z,6.65
2023-04-22T02:06:27.527Z,7.07
2023-04-22T02:08:55.644Z,8.65
2023-04-22T02:11:23.788Z,9.00
2023-04-22T02:13:52.094Z,10.35
2023-04-22T02:16:21.645Z,8.02
2023-04-22T02:18:49.871Z,6.55
2023-04-22T02:21:18.016Z,6.53
2023-04-22T02:23:46.176Z,6.72
2023-04-22T02:26:14.338Z,6.65
2023-04-22T02:28:42.828Z,7.53
2023-04-22T02:31:10.966Z,7.60
2023-04-22T02:33:40.416Z,9.07
2023-04-22T02:36:09.036Z,9.32
2023-04-22T02:38:37.545Z,6.93
2023-04-22T02:41:05.822Z,6.65
2023-04-22T02:43:33.894Z,6.35
2023-04-22T02:46:01.999Z,7.75
2023-04-22T02:48:30.151Z,6.63
2023-04-22T02:50:59.746Z,7.75
2023-04-22T02:53:27.920Z,8.10
2023-04-22T02:55:56.981Z,7.35
2023-04-22T02:58:26.247Z,7.43
2023-04-22T03:00:54.560Z,6.63
2023-04-22T03:03:22.946Z,9.30
2023-04-22T03:05:51.291Z,8.52
2023-04-22T03:08:21.006Z,9.32
2023-04-22T03:10:49.306Z,8.30
2023-04-22T03:13:17.438Z,8.38
2023-04-22T03:15:45.561Z,7.47
2023-04-22T03:18:13.691Z,7.80
2023-04-22T03:20:41.819Z,7.60
2023-04-22T03:23:10.033Z,7.47
2023-04-22T03:25:39.554Z,7.90
2023-04-22T03:28:07.782Z,8.73
2023-04-22T03:30:36.008Z,8.52
2023-04-22T03:33:04.341Z,8.35
2023-04-22T03:35:32.611Z,11.45
2023-04-22T03:38:00.663Z,8.20
2023-04-22T03:40:28.838Z,7.70
2023-04-22T03:42:58.520Z,7.25
2023-04-22T03:45:26.609Z,9.27
2023-04-22T03:47:54.756Z,10.35
2023-04-22T03:50:23.067Z,8.98
2023-04-22T03:52:51.235Z,8.65
2023-04-22T03:55:19.432Z,10.45
2023-04-22T03:57:47.583Z,9.38
2023-04-22T04:00:17.510Z,10.50
2023-04-22T04:02:45.869Z,7.88
2023-04-22T04:05:14.537Z,7.88
2023-04-22T04:07:43.092Z,10.07
2023-04-22T04:10:12.813Z,11.77
2023-04-22T04:12:41.286Z,12.57
2023-04-22T04:15:10.149Z,8.82
2023-04-22T04:17:39.961Z,11.15
2023-04-22T04:20:08.909Z,9.45
2023-04-22T04:22:37.762Z,10.85
2023-04-22T04:25:06.830Z,11.27
2023-04-22T04:27:35.990Z,12.60
2023-04-22T04:30:04.830Z,10.85
2023-04-22T04:32:34.454Z,10.00
2023-04-22T04:35:04.820Z,8.95
2023-04-22T04:37:33.320Z,9.07
2023-04-22T04:40:01.790Z,8.80
2023-04-22T04:42:30.619Z,9.85
2023-04-22T04:44:59.572Z,10.07
2023-04-22T04:47:28.491Z,9.02
2023-04-22T04:49:58.632Z,7.70
2023-04-22T04:52:28.446Z,9.35
2023-04-22T04:54:56.873Z,8.80
2023-04-22T04:57:25.318Z,10.15
2023-04-22T04:59:53.724Z,8.55
2023-04-22T05:02:22.338Z,9.50
2023-04-22T05:04:51.145Z,8.40
2023-04-22T05:07:19.711Z,8.25
2023-04-22T05:09:49.511Z,6.45
2023-04-22T05:12:17.907Z,8.15
2023-04-22T05:14:46.601Z,8.23
2023-04-22T05:17:15.233Z,9.93
2023-04-22T05:19:43.677Z,7.47
2023-04-22T05:22:12.104Z,9.15
2023-04-22T05:24:40.559Z,7.95
2023-04-22T05:27:10.424Z,9.02
2023-04-22T05:29:39.026Z,8.10
2023-04-22T05:32:09.099Z,10.18
2023-04-22T05:34:37.698Z,10.38
2023-04-22T05:37:06.189Z,8.90
2023-04-22T05:39:34.588Z,8.48
2023-04-22T05:42:03.496Z,7.50
2023-04-22T05:44:33.290Z,6.40
2023-04-22T05:47:01.720Z,9.68
2023-04-22T05:49:30.195Z,10.65
2023-04-22T05:51:58.727Z,10.02
2023-04-22T05:54:27.161Z,10.20
2023-04-22T05:56:55.959Z,11.38
2023-04-22T05:59:24.224Z,13.30
2023-04-22T06:01:53.695Z,9.60
2023-04-22T06:04:22.344Z,14.07
2023-04-22T06:06:53.776Z,13.98
2023-04-22T06:09:22.039Z,14.93
2023-04-22T06:11:50.223Z,11.20
2023-04-22T06:14:18.432Z,10.30
2023-04-22T06:16:46.612Z,11.35
2023-04-22T06:19:16.374Z,12.77
2023-04-22T06:21:44.757Z,16.00
2023-04-22T06:24:14.402Z,15.65
2023-04-22T06:26:42.867Z,18.17
2023-04-22T06:29:11.402Z,14.75
2023-04-22T06:31:39.945Z,14.50
2023-04-22T06:34:08.407Z,17.48
2023-04-22T06:36:38.401Z,18.13
2023-04-22T06:39:07.431Z,17.75
2023-04-22T06:41:35.705Z,16.35
2023-04-22T06:44:03.881Z,18.85
2023-04-22T06:46:32.078Z,18.75
2023-04-22T06:49:00.235Z,14.82
2023-04-22T06:51:28.430Z,17.77
2023-04-22T06:53:58.556Z,20.55
2023-04-22T06:56:26.853Z,12.95
2023-04-22T06:58:55.071Z,18.25
2023-04-22T07:01:23.231Z,19.50
2023-04-22T07:03:51.431Z,16.00
2023-04-22T07:06:19.978Z,14.90
2023-04-22T07:08:48.219Z,17.85
2023-04-22T07:11:18.894Z,17.52
2023-04-22T07:13:47.024Z,17.88
2023-04-22T07:16:15.181Z,17.27
2023-04-22T07:18:43.464Z,14.00
2023-04-22T07:21:11.645Z,14.45
2023-04-22T07:23:39.810Z,16.23
2023-04-22T07:26:08.092Z,16.67
2023-04-22T07:28:37.703Z,14.32
2023-04-22T07:31:06.127Z,14.27
2023-04-22T07:33:34.195Z,15.07
2023-04-22T07:36:02.371Z,16.45
2023-04-22T07:38:32.410Z,15.63
2023-04-22T07:41:00.939Z,13.32
2023-04-22T07:43:29.138Z,8.48
2023-04-22T07:45:58.796Z,12.25
2023-04-22T07:48:27.268Z,10.43
2023-04-22T07:50:55.726Z,9.50
2023-04-22T07:53:23.859Z,6.97
2023-04-22T07:55:52.182Z,10.35
2023-04-22T07:58:20.389Z,8.82
2023-04-22T08:00:48.599Z,8.15
2023-04-22T08:03:18.313Z,8.32
2023-04-22T08:05:46.754Z,12.73
2023-04-22T08:08:14.916Z,10.68
2023-04-22T08:10:43.106Z,10.55
2023-04-22T08:13:11.286Z,8.50
2023-04-22T08:15:40.099Z,10.65
2023-04-22T08:18:08.374Z,12.73
2023-04-22T08:20:37.954Z,11.20
2023-04-22T08:23:07.019Z,12.57
2023-04-22T08:25:36.264Z,12.30
2023-04-22T08:28:04.797Z,12.73
2023-04-22T08:30:32.914Z,12.20
2023-04-22T08:33:01.080Z,12.60
2023-04-22T08:35:29.249Z,14.20
2023-04-22T08:37:58.799Z,10.38
2023-04-22T08:40:26.970Z,10.05
2023-04-22T08:42:56.041Z,10.07
2023-04-22T08:45:24.602Z,10.30
2023-04-22T08:47:54.258Z,9.73
2023-04-22T08:50:23.320Z,10.30
2023-04-22T08:52:51.532Z,9.57
2023-04-22T08:55:21.389Z,7.72
2023-04-22T08:57:50.342Z,8.40
2023-04-22T09:00:20.114Z,8.05
2023-04-22T09:02:50.625Z,9.00
2023-04-22T09:05:20.587Z,8.23
2023-04-22T09:07:49.412Z,8.52
2023-04-22T09:10:18.490Z,8.68
2023-04-22T09:12:49.730Z,8.38
2023-04-22T09:15:18.392Z,8.32
2023-04-22T09:17:46.586Z,8.57
2023-04-22T09:20:16.060Z,9.20
2023-04-22T09:22:47.341Z,8.57
2023-04-22T09:25:19.335Z,8.88
2023-04-22T09:27:52.908Z,8.45
2023-04-22T09:30:25.493Z,7.10
2023-04-22T09:32:55.292Z,7.35
2023-04-22T09:35:29.288Z,7.13
2023-04-22T09:37:57.800Z,7.75
2023-04-22T09:40:27.152Z,7.40
2023-04-22T09:42:58.530Z,7.40
2023-04-22T09:45:28.329Z,7.40
2023-04-22T09:47:57.630Z,7.32
2023-04-22T09:50:27.480Z,7.15
2023-04-22T09:52:57.242Z,7.15
2023-04-22T09:55:26.405Z,6.45
2023-04-22T09:57:56.989Z,7.38
2023-04-22T10:00:27.114Z,17.88
2023-04-22T10:02:55.483Z,7.82
2023-04-22T10:05:25.447Z,7.90
2023-04-22T10:07:53.970Z,13.13
2023-04-22T10:10:22.362Z,12.70
2023-04-22T10:12:51.317Z,8.88
2023-04-22T10:15:20.977Z,10.75
2023-04-22T10:17:51.380Z,8.73
2023-04-22T10:20:21.372Z,8.68
2023-04-22T10:22:49.562Z,8.18
2023-04-22T10:25:24.571Z,8.85
2023-04-22T10:27:56.563Z,8.75
2023-04-22T10:30:33.636Z,9.20
2023-04-22T10:33:39.588Z,8.82
2023-04-22T10:36:12.458Z,8.52
2023-04-22T10:38:42.651Z,7.88
2023-04-22T10:41:16.013Z,6.72
2023-04-22T10:43:45.525Z,7.35
2023-04-22T10:46:52.219Z,7.63
2023-04-22T10:51:51.529Z,10.13
2023-04-22T10:54:38.690Z,6.07
2023-04-22T10:57:07.756Z,7.38
2023-04-22T10:59:37.403Z,7.32
2023-04-22T11:02:07.340Z,9.25
2023-04-22T11:04:38.732Z,10.15
2023-04-22T11:07:17.010Z,8.38
2023-04-22T11:09:46.492Z,7.03
2023-04-22T11:12:33.248Z,6.85
2023-04-22T11:15:01.773Z,4.40
2023-04-22T11:17:30.321Z,6.07
2023-04-22T11:20:00.692Z,7.07
2023-04-22T11:22:29.267Z,8.00
2023-04-22T11:24:57.991Z,8.82
2023-04-22T11:27:27.161Z,11.77
2023-04-22T11:30:02.444Z,8.05
2023-04-22T11:32:31.019Z,8.73
2023-04-22T11:35:00.982Z,10.38
2023-04-22T11:37:29.526Z,10.68
2023-04-22T11:40:28.349Z,11.32
2023-04-22T11:42:50.180Z,9.70
2023-04-22T11:45:18.710Z,6.80
2023-04-22T11:47:47.113Z,12.18
2023-04-22T11:50:16.879Z,9.40
2023-04-22T11:52:49.611Z,11.52
2023-04-22T11:55:20.628Z,11.27
2023-04-22T11:57:53.951Z,11.25
2023-04-22T12:00:22.818Z,8.52
2023-04-22T12:02:58.227Z,11.75
2023-04-22T12:05:41.403Z,10.65
2023-04-22T12:08:10.800Z,8.73
2023-04-22T12:10:45.852Z,9.43
2023-04-22T12:13:20.933Z,7.30
2023-04-22T12:15:49.354Z,6.90
2023-04-22T12:18:17.790Z,5.03
2023-04-22T12:20:47.568Z,7.40
2023-04-22T12:23:16.435Z,6.90
2023-04-22T12:25:45.340Z,5.97
2023-04-22T12:28:14.302Z,5.70
2023-04-22T12:30:42.859Z,6.55
2023-04-22T12:33:11.648Z,5.88
2023-04-22T12:35:40.116Z,4.97
2023-04-22T12:38:10.035Z,6.28
2023-04-22T12:40:38.471Z,4.22
2023-04-22T12:43:06.951Z,4.65
2023-04-22T12:45:35.454Z,6.60
2023-04-22T12:48:03.993Z,5.40
2023-04-22T12:50:32.451Z,5.32
2023-04-22T12:53:00.890Z,5.20
2023-04-22T12:55:30.727Z,5.40
2023-04-22T12:57:59.209Z,5.50
2023-04-22T13:00:27.743Z,5.75
2023-04-22T13:02:56.373Z,4.82
2023-04-22T13:05:25.027Z,5.35
2023-04-22T13:08:00.026Z,5.90
2023-04-22T13:10:36.373Z,5.38
2023-04-22T13:13:17.837Z,5.18
2023-04-22T13:15:47.767Z,4.97
2023-04-22T13:18:17.231Z,5.57
2023-04-22T13:20:46.324Z,5.32
2023-04-22T13:23:15.580Z,5.90
2023-04-22T13:25:45.364Z,5.03
2023-04-22T13:28:13.738Z,5.88
2023-04-22T13:30:42.174Z,5.55
2023-04-22T13:33:10.591Z,5.13
2023-04-22T13:35:39.032Z,6.35
2023-04-22T13:38:07.992Z,6.57
2023-04-22T13:40:36.546Z,4.30
2023-04-22T13:43:06.412Z,5.55
2023-04-22T13:45:34.837Z,6.15
2023-04-22T13:48:03.433Z,3.97
2023-04-22T13:50:31.911Z,5.50
2023-04-22T13:53:00.310Z,6.50
2023-04-22T13:55:28.925Z,7.05
2023-04-22T13:57:57.473Z,7.07
2023-04-22T14:00:27.290Z,8.35
2023-04-22T14:02:56.932Z,10.35
2023-04-22T14:05:25.611Z,12.18
2023-04-22T14:07:54.049Z,8.60
2023-04-22T14:10:22.407Z,8.82
2023-04-22T14:12:51.399Z,7.53
2023-04-22T14:15:19.598Z,10.27
2023-04-22T14:17:49.731Z,11.10
2023-04-22T14:20:18.102Z,11.73
2023-04-22T14:22:46.363Z,13.52
2023-04-22T14:25:14.721Z,10.98
2023-04-22T14:27:42.958Z,9.90
2023-04-22T14:30:12.321Z,14.13
2023-04-22T14:32:40.766Z,13.68
2023-04-22T14:35:10.934Z,13.15
2023-04-22T14:37:41.092Z,19.77
2023-04-22T14:40:12.099Z,14.20
2023-04-22T14:42:40.583Z,19.35
2023-04-22T14:45:09.796Z,16.80
2023-04-22T14:47:38.059Z,11.02
2023-04-22T14:50:07.291Z,11.10
2023-04-22T14:52:36.876Z,14.95
2023-04-22T14:55:15.571Z,13.65
2023-04-22T14:57:51.979Z,8.82
2023-04-22T15:00:20.406Z,12.73
2023-04-22T15:02:48.744Z,13.55
2023-04-22T15:05:17.037Z,9.60
2023-04-22T15:07:46.618Z,14.38
2023-04-22T15:10:16.786Z,10.02
2023-04-22T15:12:45.052Z,12.00
2023-04-22T15:15:16.108Z,10.77
2023-04-22T15:17:45.530Z,12.40
2023-04-22T15:20:14.650Z,8.25
2023-04-22T15:22:43.019Z,7.97
2023-04-22T15:25:12.844Z,11.05
2023-04-22T15:27:41.331Z,8.32
2023-04-22T15:30:11.112Z,8.93
2023-04-22T15:32:40.232Z,8.80
2023-04-22T15:35:09.601Z,11.10
2023-04-22T15:37:37.995Z,7.22
2023-04-22T15:40:07.732Z,6.45
2023-04-22T15:42:37.317Z,6.85
2023-04-22T15:45:06.199Z,6.25
2023-04-22T15:47:35.002Z,9.60
2023-04-22T15:50:06.634Z,9.77
2023-04-22T15:52:35.270Z,9.82
2023-04-22T15:55:03.564Z,9.23
2023-04-22T15:57:35.028Z,9.75
2023-04-22T16:00:12.629Z,19.30
2023-04-22T16:02:42.011Z,9.40
2023-04-22T16:05:11.468Z,11.75
2023-04-22T16:07:40.248Z,14.35
2023-04-22T16:10:10.129Z,15.02
2023-04-22T16:12:38.260Z,14.23
2023-04-22T16:15:09.648Z,11.93
2023-04-22T16:17:38.519Z,12.00
2023-04-22T16:20:07.687Z,13.18
2023-04-22T16:22:36.671Z,11.98
2023-04-22T16:25:07.722Z,14.65
2023-04-22T16:27:36.219Z,13.63
2023-04-22T16:30:04.948Z,14.38
2023-04-22T16:32:34.457Z,15.30
2023-04-22T16:35:02.690Z,14.50
2023-04-22T16:37:31.068Z,12.38
2023-04-22T16:40:01.773Z,14.90
2023-04-22T16:42:30.459Z,10.88
2023-04-22T16:44:58.616Z,8.75
2023-04-22T16:47:27.361Z,15.65
2023-04-22T16:49:56.916Z,15.80
2023-04-22T16:52:26.513Z,14.43
2023-04-22T16:54:57.157Z,12.35
2023-04-22T16:57:25.555Z,10.35
2023-04-22T16:59:54.013Z,11.30
2023-04-22T17:02:22.333Z,11.13
2023-04-22T17:04:51.074Z,14.30
2023-04-22T17:07:20.876Z,11.43
2023-04-22T17:09:49.928Z,16.70
2023-04-22T17:12:18.904Z,10.93
2023-04-22T17:14:46.976Z,12.35
2023-04-22T17:17:15.170Z,10.10
2023-04-22T17:19:43.970Z,16.77
2023-04-22T17:22:12.673Z,15.43
2023-04-22T17:24:42.290Z,12.95
2023-04-22T17:27:10.659Z,14.82
2023-04-22T17:29:38.936Z,15.88
2023-04-22T17:32:07.639Z,10.35
2023-04-22T17:34:35.967Z,12.02
2023-04-22T17:37:04.265Z,12.77
2023-04-22T17:39:32.603Z,10.80
2023-04-22T17:42:02.461Z,13.75
2023-04-22T17:44:31.674Z,14.60
2023-04-22T17:47:00.016Z,16.17
2023-04-22T17:49:28.959Z,12.90
2023-04-22T17:51:57.254Z,11.38
2023-04-22T17:54:25.528Z,15.48
2023-04-22T17:56:53.755Z,9.43
2023-04-22T17:59:23.247Z,10.32
2023-04-22T18:01:51.501Z,13.05
2023-04-22T18:04:19.750Z,12.75
2023-04-22T18:06:47.912Z,12.15
2023-04-22T18:09:16.119Z,14.57
2023-04-22T18:11:44.262Z,13.63
2023-04-22T18:14:12.445Z,12.23
2023-04-22T18:16:42.002Z,12.60
2023-04-22T18:19:10.504Z,11.10
2023-04-22T18:21:44.109Z,13.60
2023-04-22T18:24:21.243Z,13.98
2023-04-22T18:26:49.422Z,12.90
2023-04-22T18:29:17.606Z,13.70
2023-04-22T18:31:47.185Z,14.63
2023-04-22T18:34:16.142Z,13.00
2023-04-22T18:36:44.327Z,12.43
2023-04-22T18:39:12.540Z,9.85
2023-04-22T18:41:43.260Z,10.15
2023-04-22T18:44:14.056Z,12.65
2023-04-22T18:46:42.281Z,13.57
2023-04-22T18:49:11.806Z,15.30
2023-04-22T18:51:42.056Z,14.40
2023-04-22T18:54:10.528Z,13.95
2023-04-22T18:56:38.987Z,15.23
2023-04-22T18:59:07.230Z,17.45
2023-04-22T19:01:35.646Z,18.38
2023-04-22T19:04:04.165Z,16.38
2023-04-22T19:06:33.764Z,15.98
2023-04-22T19:09:01.977Z,12.68
2023-04-22T19:11:30.179Z,10.15
2023-04-22T19:13:58.474Z,12.55
2023-04-22T19:16:27.841Z,11.23
2023-04-22T19:18:56.240Z,10.95
2023-04-22T19:21:24.568Z,9.65
2023-04-22T19:23:54.040Z,8.50
2023-04-22T19:26:22.262Z,9.88
2023-04-22T19:28:50.465Z,11.27
2023-04-22T19:31:18.973Z,9.75
2023-04-22T19:33:47.219Z,7.82
2023-04-22T19:36:15.475Z,9.50
2023-04-22T19:38:44.347Z,10.63
2023-04-22T19:41:14.414Z,11.52
2023-04-22T19:43:42.908Z,10.52
2023-04-22T19:46:11.159Z,14.10
2023-04-22T19:48:39.893Z,9.15
2023-04-22T19:51:10.099Z,11.48
2023-04-22T19:53:41.222Z,9.52
2023-04-22T19:56:10.200Z,10.25
2023-04-22T19:58:41.052Z,8.65
2023-04-22T20:01:10.117Z,10.07
2023-04-22T20:03:39.019Z,8.15
2023-04-22T20:06:07.819Z,10.05
2023-04-22T20:08:36.463Z,12.88
2023-04-22T20:11:05.195Z,14.43
2023-04-22T20:13:34.292Z,16.83
2023-04-22T20:16:04.804Z,18.20
2023-04-22T20:18:33.409Z,17.05
2023-04-22T20:21:01.968Z,18.58
2023-04-22T20:23:31.076Z,14.88
2023-04-22T20:26:00.043Z,14.00
2023-04-22T20:28:43.373Z,17.70
2023-04-22T20:31:13.449Z,15.07
2023-04-22T20:33:42.329Z,18.13
2023-04-22T20:36:11.437Z,15.55
2023-04-22T20:38:40.004Z,13.32
2023-04-22T20:41:10.061Z,23.77
2023-04-22T20:43:38.393Z,28.77
2023-04-22T20:46:06.753Z,22.02
2023-04-22T20:48:36.537Z,19.42
2023-04-22T20:51:05.639Z,22.52
2023-04-22T20:53:34.163Z,20.65
2023-04-22T20:56:02.268Z,17.30
2023-04-22T20:58:32.147Z,18.67
2023-04-22T21:01:00.461Z,19.15
2023-04-22T21:03:29.037Z,25.55
2023-04-22T21:06:00.049Z,22.23
2023-04-22T21:08:28.669Z,19.38
2023-04-22T21:10:57.644Z,17.27
2023-04-22T21:13:26.279Z,13.13
2023-04-22T21:15:58.874Z,16.65
2023-04-22T21:18:27.684Z,15.80
2023-04-22T21:20:58.492Z,19.13
2023-04-22T21:23:27.238Z,19.98
2023-04-22T21:25:56.479Z,19.95
2023-04-22T21:28:24.794Z,20.33
2023-04-22T21:30:53.415Z,17.42
2023-04-22T21:33:21.596Z,21.77
2023-04-22T21:35:49.708Z,17.33
2023-04-22T21:38:19.763Z,17.73
2023-04-22T21:40:48.620Z,20.95
2023-04-22T21:43:16.777Z,23.65
2023-04-22T21:45:44.940Z,17.50
2023-04-22T21:48:13.115Z,19.38
2023-04-22T21:50:41.708Z,14.98
2023-04-22T21:53:09.955Z,17.75
2023-04-22T21:55:39.897Z,16.17
2023-04-22T21:58:08.056Z,18.25
2023-04-22T22:00:37.801Z,20.15
2023-04-22T22:03:06.392Z,17.42
2023-04-22T22:05:34.777Z,18.48
2023-04-22T22:08:03.213Z,19.77
2023-04-22T22:10:31.482Z,23.15
2023-04-22T22:13:00.949Z,21.90
2023-04-22T22:15:29.096Z,22.10
2023-04-22T22:17:57.584Z,23.13
2023-04-22T22:20:26.648Z,25.15
2023-04-22T22:22:54.814Z,29.35
2023-04-22T22:25:23.428Z,30.60
2023-04-22T22:27:51.552Z,19.60
2023-04-22T22:30:21.747Z,21.27
2023-04-22T22:32:50.314Z,21.13
2023-04-22T22:35:18.528Z,16.88
2023-04-22T22:37:46.692Z,12.18
2023-04-22T22:40:14.841Z,14.80
2023-04-22T22:42:42.971Z,13.18
2023-04-22T22:45:12.087Z,11.88
2023-04-22T22:47:41.795Z,9.00
2023-04-22T22:50:11.509Z,10.68
2023-04-22T22:52:40.001Z,13.43
2023-04-22T22:55:08.743Z,12.00
2023-04-22T22:57:36.889Z,10.18
2023-04-22T23:00:06.975Z,13.32
2023-04-22T23:02:35.324Z,14.65
2023-04-22T23:05:05.348Z,12.88
2023-04-22T23:07:33.518Z,12.52
2023-04-22T23:10:01.687Z,14.18
2023-04-22T23:12:29.854Z,10.05
2023-04-22T23:14:58.002Z,13.43
2023-04-22T23:17:26.292Z,14.35
2023-04-22T23:19:56.085Z,12.68
2023-04-22T23:22:26.844Z,11.23
2023-04-22T23:24:55.494Z,9.02
2023-04-22T23:27:24.317Z,11.50
2023-04-22T23:29:52.960Z,8.82
2023-04-22T23:32:22.289Z,11.25
2023-04-22T23:34:52.216Z,13.93
2023-04-22T23:37:21.362Z,15.27
2023-04-22T23:39:50.907Z,13.57
2023-04-22T23:42:19.106Z,13.93
2023-04-22T23:44:47.294Z,11.98
2023-04-22T23:47:15.461Z,8.68
2023-04-22T23:49:43.583Z,8.98
2023-04-22T23:52:13.171Z,9.77
2023-04-22T23:54:42.109Z,13.18
2023-04-22T23:57:12.393Z,9.18
2023-04-22T23:59:41.057Z,8.77
